Time;durP1;ratioP1;P1;durP2;ratioP2;P2;SDS_P1;SDS_P2;PMS_P1;PMS_P2;Temp;Humidity;BMP_temperature;BMP_pressure;BME280_temperature;BME280_humidity;BME280_pressure;Samples;Min_cycle;Max_cycle;Signal;HPM_P1;HPM_P2
2022/08/23 00:01:45;;;;;;;7.30;5.22;;;18.50;99.90;;;;;;5011436;28;20542;-59
2022/08/23 00:04:16;;;;;;;10.70;4.95;;;18.50;99.90;;;;;;5012279;28;20042;-59
2022/08/23 00:06:43;;;;;;;8.38;5.13;;;18.50;99.90;;;;;;5015779;28;20153;-59
2022/08/23 00:09:09;;;;;;;8.52;5.05;;;18.50;99.90;;;;;;5014350;28;20046;-63
2022/08/23 00:11:39;;;;;;;12.30;5.03;;;18.50;99.90;;;;;;5015516;28;20038;-59
2022/08/23 00:14:08;;;;;;;8.82;4.75;;;18.40;99.90;;;;;;5015478;28;20054;-60
2022/08/23 00:16:34;;;;;;;8.93;5.10;;;18.40;99.90;;;;;;5014170;28;20062;-59
2022/08/23 00:19:03;;;;;;;8.57;4.78;;;18.40;99.90;;;;;;5015614;28;20053;-59
2022/08/23 00:21:29;;;;;;;10.07;5.05;;;18.40;99.90;;;;;;5015257;28;20133;-59
2022/08/23 00:23:55;;;;;;;12.48;4.82;;;18.40;99.90;;;;;;5015185;28;20141;-59
2022/08/23 00:26:21;;;;;;;7.43;4.85;;;18.40;99.90;;;;;;4997728;28;20065;-59
2022/08/23 00:28:48;;;;;;;9.43;5.05;;;18.40;99.90;;;;;;5015063;28;20045;-59
2022/08/23 00:31:15;;;;;;;10.68;5.45;;;18.30;99.90;;;;;;5014859;28;20300;-63
2022/08/23 00:33:41;;;;;;;7.57;5.20;;;18.30;99.90;;;;;;5015451;28;20058;-60
2022/08/23 00:36:07;;;;;;;8.50;5.22;;;18.20;99.90;;;;;;5015238;28;20157;-59
2022/08/23 00:38:32;;;;;;;11.07;5.40;;;18.20;99.90;;;;;;5013710;28;20296;-59
2022/08/23 00:40:58;;;;;;;10.23;4.85;;;18.20;99.90;;;;;;4997952;28;20049;-59
2022/08/23 00:49:18;;;;;;;9.60;4.63;;;18.10;99.90;;;;;;5014920;28;20140;-61
2022/08/23 00:52:07;;;;;;;8.07;4.82;;;18.10;99.90;;;;;;5015078;28;20053;-59
2022/08/23 00:54:35;;;;;;;8.90;4.95;;;18.10;99.90;;;;;;5012756;28;20054;-59
2022/08/23 00:57:04;;;;;;;7.82;5.00;;;18.10;99.90;;;;;;5014929;28;20054;-61
2022/08/23 00:59:31;;;;;;;11.13;4.97;;;18.10;99.90;;;;;;4997240;28;20056;-59
2022/08/23 01:01:59;;;;;;;7.55;4.75;;;18.00;99.90;;;;;;5014812;28;20064;-60
2022/08/23 01:04:33;;;;;;;7.32;5.22;;;18.10;99.90;;;;;;5014496;28;20088;-59
2022/08/23 01:07:10;;;;;;;12.43;5.70;;;18.00;99.90;;;;;;5014771;28;20368;-59
2022/08/23 01:09:38;;;;;;;10.40;4.82;;;18.00;99.90;;;;;;5014006;28;20332;-60
2022/08/23 01:12:07;;;;;;;9.45;5.05;;;18.00;99.90;;;;;;5014631;28;20045;-60
2022/08/23 01:14:42;;;;;;;11.52;5.20;;;17.90;99.90;;;;;;5012696;28;20077;-60
2022/08/23 01:17:16;;;;;;;9.40;5.68;;;17.90;99.90;;;;;;5013251;28;20046;-60
2022/08/23 01:19:52;;;;;;;12.00;6.22;;;17.90;99.90;;;;;;5013211;28;20054;-60
2022/08/23 01:22:42;;;;;;;10.25;6.43;;;17.90;99.90;;;;;;5014524;28;20049;-60
2022/08/23 01:25:11;;;;;;;12.93;6.68;;;17.90;99.90;;;;;;5013272;28;20052;-60
2022/08/23 01:27:38;;;;;;;11.88;6.72;;;17.90;99.90;;;;;;5014092;28;20054;-60
2022/08/23 01:30:07;;;;;;;13.85;7.25;;;17.90;99.90;;;;;;5014293;28;20054;-60
2022/08/23 01:32:39;;;;;;;14.88;6.82;;;17.90;99.90;;;;;;5013760;28;20061;-61
2022/08/23 01:35:05;;;;;;;9.60;6.60;;;17.90;99.90;;;;;;4996778;28;20124;-60
2022/08/23 01:37:32;;;;;;;11.38;7.20;;;17.90;99.90;;;;;;5012659;28;20124;-60
2022/08/23 01:39:57;;;;;;;13.55;7.10;;;17.80;99.90;;;;;;5014133;28;20360;-60
2022/08/23 01:42:23;;;;;;;10.75;6.68;;;17.80;99.90;;;;;;5012561;28;20053;-60
2022/08/23 01:44:49;;;;;;;12.18;7.00;;;17.80;99.90;;;;;;5013822;28;20038;-60
2022/08/23 01:47:16;;;;;;;10.73;7.15;;;17.80;99.90;;;;;;5012990;28;20053;-60
2022/08/23 01:49:42;;;;;;;12.15;7.20;;;17.70;99.90;;;;;;5013651;28;20233;-60
2022/08/23 01:52:07;;;;;;;11.55;7.75;;;17.70;99.90;;;;;;5013886;28;20053;-60
2022/08/23 01:54:33;;;;;;;12.90;7.78;;;17.70;99.90;;;;;;5013558;28;20128;-60
2022/08/23 01:56:59;;;;;;;13.48;8.45;;;17.70;99.90;;;;;;5012648;28;20104;-59
2022/08/23 01:59:25;;;;;;;18.90;9.07;;;17.70;99.90;;;;;;5013487;28;20042;-59
2022/08/23 02:01:52;;;;;;;14.43;8.93;;;17.70;99.90;;;;;;5012431;28;20053;-59
2022/08/23 02:04:18;;;;;;;12.60;8.40;;;17.70;99.90;;;;;;5013717;28;20050;-60
2022/08/23 02:06:44;;;;;;;11.32;8.15;;;17.70;99.90;;;;;;5013335;28;20077;-59
2022/08/23 02:09:10;;;;;;;9.95;7.80;;;17.70;99.90;;;;;;5013581;28;20466;-59
2022/08/23 02:11:39;;;;;;;14.10;7.93;;;17.70;99.90;;;;;;4995624;28;20103;-59
2022/08/23 02:14:17;;;;;;;12.15;8.52;;;17.60;99.90;;;;;;5011837;28;20057;-59
2022/08/23 02:16:47;;;;;;;10.25;7.80;;;17.60;99.90;;;;;;5013254;28;20045;-59
2022/08/23 02:19:14;;;;;;;11.52;8.27;;;17.60;99.90;;;;;;5012300;28;20133;-60
2022/08/23 02:21:41;;;;;;;11.98;8.30;;;17.60;99.90;;;;;;5012757;28;20046;-59
2022/08/23 02:24:16;;;;;;;14.02;8.13;;;17.50;99.90;;;;;;5012202;28;20399;-59
2022/08/23 02:26:54;;;;;;;11.48;8.10;;;17.50;99.90;;;;;;5012250;28;20049;-59
2022/08/23 02:29:22;;;;;;;13.40;7.85;;;17.50;99.90;;;;;;5013210;28;20045;-59
2022/08/23 02:31:48;;;;;;;11.43;8.30;;;17.40;99.90;;;;;;5011824;28;20124;-59
2022/08/23 02:34:16;;;;;;;13.70;9.07;;;17.40;99.90;;;;;;5012924;28;20077;-59
2022/08/23 02:36:43;;;;;;;12.32;8.68;;;17.40;99.90;;;;;;5011687;28;20104;-59
2022/08/23 02:39:11;;;;;;;12.15;9.02;;;17.40;99.90;;;;;;5011953;28;20050;-59
2022/08/23 02:41:37;;;;;;;11.40;7.97;;;17.30;99.90;;;;;;5011443;28;20137;-59
2022/08/23 02:44:04;;;;;;;9.65;8.18;;;17.30;99.90;;;;;;5011677;28;20129;-58
2022/08/23 02:46:30;;;;;;;12.18;8.45;;;17.30;99.90;;;;;;5012751;28;20107;-63
2022/08/23 02:48:56;;;;;;;15.13;8.80;;;17.30;99.90;;;;;;5012854;28;20045;-59
2022/08/23 02:51:22;;;;;;;13.05;9.38;;;17.30;99.90;;;;;;4995244;28;20049;-58
2022/08/23 02:53:47;;;;;;;9.85;8.57;;;17.30;99.90;;;;;;5011228;28;20144;-59
2022/08/23 02:56:13;;;;;;;12.05;7.95;;;17.30;99.90;;;;;;4979016;28;20077;-59
2022/08/23 02:58:40;;;;;;;12.88;9.27;;;17.30;99.90;;;;;;5011413;28;20498;-59
2022/08/23 03:01:13;;;;;;;14.02;8.85;;;17.30;99.90;;;;;;5012630;28;20490;-59
2022/08/23 03:03:39;;;;;;;14.65;8.30;;;17.30;99.90;;;;;;5011423;28;20112;-59
2022/08/23 03:06:04;;;;;;;10.77;8.43;;;17.30;99.90;;;;;;4995291;28;20456;-59
2022/08/23 03:08:30;;;;;;;13.15;8.88;;;17.30;99.90;;;;;;5011346;28;20128;-60
2022/08/23 03:10:56;;;;;;;11.82;8.90;;;17.30;99.90;;;;;;5011238;28;20080;-59
2022/08/23 03:13:21;;;;;;;13.02;9.20;;;17.20;99.90;;;;;;5012473;28;20156;-59
2022/08/23 03:15:47;;;;;;;11.30;9.02;;;17.20;99.90;;;;;;5010383;28;20451;-59
2022/08/23 03:18:13;;;;;;;12.35;8.98;;;17.20;99.90;;;;;;5012328;28;20058;-59
2022/08/23 03:20:43;;;;;;;15.85;10.30;;;17.20;99.90;;;;;;5011110;28;20403;-60
2022/08/23 03:23:10;;;;;;;11.98;9.30;;;17.20;99.90;;;;;;5012338;28;20092;-59
2022/08/23 03:25:36;;;;;;;12.40;9.75;;;17.20;99.90;;;;;;5011990;28;20056;-61
2022/08/23 03:28:04;;;;;;;12.35;9.50;;;17.20;99.90;;;;;;5012187;28;20050;-59
2022/08/23 03:30:32;;;;;;;14.18;10.57;;;17.20;99.90;;;;;;5012322;28;20046;-62
2022/08/23 03:32:59;;;;;;;14.10;9.88;;;17.20;99.90;;;;;;5010731;28;20052;-60
2022/08/23 03:35:25;;;;;;;14.10;10.43;;;17.20;99.90;;;;;;5012164;28;20053;-60
2022/08/23 03:37:52;;;;;;;16.30;10.00;;;17.10;99.90;;;;;;5010702;28;20099;-60
2022/08/23 03:40:19;;;;;;;15.80;10.63;;;17.10;99.90;;;;;;5011905;28;20049;-60
2022/08/23 03:42:45;;;;;;;15.23;11.45;;;17.10;99.90;;;;;;5010650;28;20129;-59
2022/08/23 03:45:11;;;;;;;15.13;10.20;;;17.10;99.90;;;;;;5010878;28;20184;-60
2022/08/23 03:47:38;;;;;;;16.00;10.50;;;17.10;99.90;;;;;;5012151;28;20054;-60
2022/08/23 03:50:04;;;;;;;13.38;10.85;;;17.10;99.90;;;;;;4994836;28;20072;-60
2022/08/23 03:52:30;;;;;;;16.60;10.27;;;17.10;99.90;;;;;;5011026;28;20046;-60
2022/08/23 03:54:55;;;;;;;13.65;11.10;;;17.00;99.90;;;;;;5010466;28;20049;-61
2022/08/23 03:57:21;;;;;;;11.43;10.23;;;17.10;99.90;;;;;;5010689;28;20041;-60
2022/08/23 03:59:47;;;;;;;17.27;10.85;;;17.00;99.90;;;;;;5010347;28;20100;-59
2022/08/23 04:02:14;;;;;;;15.48;10.30;;;17.00;99.90;;;;;;5011916;28;20081;-60
2022/08/23 04:04:41;;;;;;;13.15;10.40;;;17.00;99.90;;;;;;5011533;28;20046;-64
2022/08/23 04:07:07;;;;;;;15.00;11.50;;;17.00;99.90;;;;;;5012078;28;20046;-60
2022/08/23 04:09:32;;;;;;;14.38;10.63;;;17.00;99.90;;;;;;4994344;28;20145;-61
2022/08/23 04:11:58;;;;;;;12.18;10.48;;;16.90;99.90;;;;;;5010398;28;20096;-60
2022/08/23 04:14:25;;;;;;;16.70;10.82;;;16.90;99.90;;;;;;5011501;28;20066;-59
2022/08/23 04:16:51;;;;;;;11.27;10.07;;;16.80;99.90;;;;;;5011376;28;20053;-60
2022/08/23 04:19:17;;;;;;;13.35;9.55;;;16.80;99.90;;;;;;5011550;28;20092;-60
2022/08/23 06:59:48;;;;;;;9.32;6.75;;;27.10;96.30;;;;;;4930089;29;20056;-64
2022/08/23 07:02:14;;;;;;;11.85;7.47;;;26.40;97.70;;;;;;4933576;29;20126;-62
2022/08/23 07:04:40;;;;;;;12.55;6.43;;;26.10;97.70;;;;;;4932066;29;20130;-62
2022/08/23 07:07:07;;;;;;;11.13;6.53;;;25.70;98.20;;;;;;4933560;29;20126;-65
2022/08/23 07:09:33;;;;;;;11.13;6.13;;;25.30;98.30;;;;;;4932904;29;20050;-64
2022/08/23 07:12:00;;;;;;;11.48;6.53;;;25.00;98.30;;;;;;4933415;29;20123;-62
2022/08/23 07:14:27;;;;;;;9.48;6.40;;;24.60;98.50;;;;;;4932533;29;20043;-64
2022/08/23 07:16:56;;;;;;;9.90;6.65;;;24.40;99.10;;;;;;4933200;29;20414;-63
2022/08/23 07:19:26;;;;;;;9.48;6.22;;;24.40;98.80;;;;;;4932246;29;20086;-62
2022/08/23 07:21:52;;;;;;;8.77;6.47;;;24.30;98.80;;;;;;4933159;29;20059;-62
2022/08/23 07:24:19;;;;;;;11.25;6.45;;;24.10;99.20;;;;;;4932243;29;20468;-62
2022/08/23 07:26:46;;;;;;;8.88;6.38;;;24.00;99.60;;;;;;4931522;29;20561;-62
2022/08/23 07:29:12;;;;;;;13.15;6.65;;;24.10;99.80;;;;;;4916259;29;20059;-63
2022/08/23 07:31:42;;;;;;;9.45;6.10;;;24.20;99.80;;;;;;4947500;28;20060;-62
2022/08/23 07:34:08;;;;;;;11.13;6.18;;;24.30;99.10;;;;;;4931653;29;20055;-62
2022/08/23 07:36:34;;;;;;;7.85;5.43;;;24.40;99.00;;;;;;4932778;29;20048;-63
2022/08/23 07:39:01;;;;;;;9.23;5.68;;;24.60;98.30;;;;;;4932957;29;20043;-62
2022/08/23 07:41:29;;;;;;;12.02;5.30;;;24.90;98.50;;;;;;4933109;29;20079;-61
2022/08/23 07:44:00;;;;;;;9.05;5.80;;;25.10;98.30;;;;;;4932993;29;20094;-63
2022/08/23 07:46:26;;;;;;;10.55;5.07;;;25.90;97.70;;;;;;4933219;29;20100;-63
2022/08/23 07:48:52;;;;;;;7.68;5.15;;;26.80;97.70;;;;;;4931670;29;20070;-62
2022/08/23 07:51:19;;;;;;;9.48;5.13;;;27.10;96.30;;;;;;4932043;29;20108;-64
2022/08/23 07:53:44;;;;;;;6.53;4.53;;;27.70;95.70;;;;;;4931465;29;20138;-63
2022/08/23 07:56:12;;;;;;;6.97;4.78;;;28.30;96.10;;;;;;4933004;29;20499;-62
2022/08/23 07:58:38;;;;;;;8.73;4.68;;;28.60;95.60;;;;;;4932543;29;20130;-63
2022/08/23 08:01:16;;;;;;;7.85;4.35;;;29.20;93.70;;;;;;4933001;29;20126;-62
2022/08/23 08:03:44;;;;;;;7.30;4.70;;;29.60;93.60;;;;;;4932585;29;20055;-64
2022/08/23 08:06:22;;;;;;;9.27;4.70;;;29.80;92.90;;;;;;4932830;29;20418;-63
2022/08/23 08:08:49;;;;;;;10.85;4.50;;;30.30;92.50;;;;;;4915860;29;20052;-63
2022/08/23 08:11:19;;;;;;;7.95;4.32;;;30.90;92.40;;;;;;4932745;29;20516;-62
2022/08/23 08:13:46;;;;;;;8.38;4.43;;;31.20;92.30;;;;;;4932445;29;20048;-63
2022/08/23 08:16:30;;;;;;;8.68;4.60;;;31.70;91.80;;;;;;4931412;29;20485;-63
2022/08/23 08:18:58;;;;;;;7.00;4.10;;;32.30;91.10;;;;;;4915467;29;20453;-63
2022/08/23 08:21:25;;;;;;;7.60;3.92;;;32.90;91.20;;;;;;4932908;29;20075;-64
2022/08/23 08:23:52;;;;;;;7.28;4.60;;;33.40;90.80;;;;;;4947159;28;20453;-62
2022/08/23 08:26:18;;;;;;;8.68;3.90;;;33.80;88.60;;;;;;4935102;29;20062;-67
2022/08/23 08:28:44;;;;;;;10.23;3.85;;;34.10;87.70;;;;;;4935047;29;20070;-62
2022/08/23 08:31:10;;;;;;;7.47;3.80;;;34.40;90.10;;;;;;4936468;29;20058;-63
2022/08/23 08:33:37;;;;;;;7.30;3.78;;;34.50;85.30;;;;;;4934627;29;20072;-65
2022/08/23 08:36:03;;;;;;;7.57;3.60;;;34.30;88.30;;;;;;4919353;29;20425;-62
2022/08/23 08:38:29;;;;;;;9.40;3.67;;;34.00;85.80;;;;;;4936146;29;20506;-64
2022/08/23 08:41:18;;;;;;;7.57;3.70;;;33.50;86.40;;;;;;4935879;29;20062;-63
2022/08/23 08:44:02;;;;;;;6.07;3.72;;;32.90;86.00;;;;;;4935573;29;20051;-64
2022/08/23 08:46:37;;;;;;;9.90;3.70;;;32.40;86.70;;;;;;4936261;29;20098;-63
2022/08/23 08:49:05;;;;;;;5.63;3.63;;;32.00;86.80;;;;;;4934976;29;20400;-62
2022/08/23 08:51:49;;;;;;;8.20;3.50;;;31.50;87.70;;;;;;4934852;29;20087;-63
2022/08/23 08:54:18;;;;;;;5.93;3.30;;;31.30;88.30;;;;;;4935094;29;20054;-63
2022/08/23 08:56:49;;;;;;;7.05;3.33;;;31.50;89.10;;;;;;4935846;29;20464;-62
2022/08/23 08:59:42;;;;;;;9.70;3.25;;;32.00;87.60;;;;;;4934470;29;20066;-64
2022/08/23 09:02:16;;;;;;;8.18;2.88;;;32.10;87.50;;;;;;4935200;29;20476;-64
2022/08/23 09:04:42;;;;;;;9.00;3.15;;;32.40;87.20;;;;;;4935456;29;20485;-64
2022/08/23 09:07:18;;;;;;;8.98;2.95;;;32.40;86.60;;;;;;4919087;29;20083;-64
2022/08/23 09:09:49;;;;;;;6.82;3.28;;;32.80;85.40;;;;;;4935370;29;20071;-65
2022/08/23 09:12:56;;;;;;;11.93;2.95;;;33.00;84.80;;;;;;4935930;29;20051;-65
2022/08/23 09:15:54;;;;;;;8.90;3.35;;;33.40;84.40;;;;;;4924551;29;20078;-63
2022/08/23 09:18:23;;;;;;;8.68;3.00;;;34.10;83.60;;;;;;4934406;29;20047;-65
2022/08/23 09:20:53;;;;;;;9.25;3.00;;;34.50;84.50;;;;;;4935221;29;20083;-64
2022/08/23 09:23:37;;;;;;;7.72;2.90;;;34.80;83.60;;;;;;4935356;29;20047;-64
2022/08/23 09:26:17;;;;;;;9.52;3.65;;;34.70;82.10;;;;;;4935153;29;20056;-63
2022/08/23 09:28:44;;;;;;;9.50;2.88;;;34.90;82.60;;;;;;4949847;28;20118;-68
2022/08/23 09:31:11;;;;;;;9.75;3.17;;;34.60;81.40;;;;;;4935592;29;20087;-63
2022/08/23 09:33:42;;;;;;;5.82;2.70;;;34.30;82.20;;;;;;4935268;29;20075;-64
2022/08/23 09:36:21;;;;;;;7.05;2.70;;;34.60;80.90;;;;;;4933840;29;20639;-64
2022/08/23 09:38:56;;;;;;;5.68;2.60;;;34.30;81.20;;;;;;4949568;28;20075;-63
2022/08/23 09:41:35;;;;;;;7.30;2.42;;;33.80;80.10;;;;;;4935202;29;20052;-64
2022/08/23 09:44:03;;;;;;;9.80;2.53;;;33.20;81.30;;;;;;4934561;29;20079;-62
2022/08/23 09:46:34;;;;;;;6.07;2.60;;;32.90;80.60;;;;;;4929244;29;20518;-63
2022/08/23 09:49:27;;;;;;;5.88;2.70;;;32.50;80.70;;;;;;4927947;29;20498;-63
2022/08/23 09:51:57;;;;;;;6.72;2.80;;;32.20;80.40;;;;;;4934768;29;20154;-62
2022/08/23 09:54:31;;;;;;;8.40;2.78;;;31.60;80.90;;;;;;4934838;29;20048;-62
2022/08/23 09:57:01;;;;;;;8.35;2.58;;;31.40;82.00;;;;;;4934601;29;20860;-62
2022/08/23 09:59:26;;;;;;;5.30;2.40;;;31.30;80.30;;;;;;4934530;29;20051;-63
2022/08/23 10:01:55;;;;;;;6.20;2.35;;;31.10;80.90;;;;;;4934671;29;20110;-62
2022/08/23 10:04:40;;;;;;;6.93;2.58;;;30.80;81.90;;;;;;4933816;29;20051;-62
2022/08/23 10:07:26;;;;;;;4.35;2.42;;;30.70;82.20;;;;;;4934415;29;20085;-62
2022/08/23 10:09:53;;;;;;;4.05;2.25;;;30.70;80.70;;;;;;4934241;29;20095;-63
2022/08/23 10:12:18;;;;;;;6.13;2.85;;;30.70;81.00;;;;;;4934890;29;20493;-62
2022/08/23 10:14:45;;;;;;;7.88;2.80;;;30.60;82.40;;;;;;4933147;29;20059;-62
2022/08/23 10:17:36;;;;;;;7.13;2.70;;;30.70;82.80;;;;;;4934159;29;20062;-63
2022/08/23 10:20:23;;;;;;;7.05;3.10;;;30.80;82.80;;;;;;4932863;29;20059;-63
2022/08/23 10:22:53;;;;;;;5.60;2.42;;;30.80;82.60;;;;;;4934417;29;20056;-67
2022/08/23 10:25:29;;;;;;;5.05;2.42;;;30.60;82.30;;;;;;4921323;29;20047;-62
2022/08/23 10:31:09;;;;;;;5.20;2.38;;;30.70;82.70;;;;;;4923459;29;20115;-63
2022/08/23 10:33:47;;;;;;;7.20;2.70;;;30.70;82.30;;;;;;4932960;29;20115;-62
2022/08/23 10:36:30;;;;;;;4.88;2.47;;;30.70;81.50;;;;;;4932430;29;20138;-62
2022/08/23 10:39:19;;;;;;;7.80;2.60;;;30.50;81.60;;;;;;4934049;29;20055;-63
2022/08/23 10:42:15;;;;;;;5.55;2.60;;;30.50;81.10;;;;;;4929875;29;20083;-62
2022/08/23 10:44:59;;;;;;;7.70;2.95;;;30.50;81.70;;;;;;4948799;28;20080;-63
2022/08/23 10:47:36;;;;;;;5.82;2.70;;;30.60;81.60;;;;;;4933956;29;20055;-64
2022/08/23 10:50:12;;;;;;;6.75;2.83;;;30.60;82.50;;;;;;4933549;29;20131;-64
2022/08/23 10:52:59;;;;;;;6.25;2.75;;;30.70;82.80;;;;;;4920484;29;20067;-63
2022/08/23 10:58:22;;;;;;;5.90;2.80;;;30.70;82.50;;;;;;4933415;29;20485;-65
2022/08/23 11:00:50;;;;;;;6.18;2.65;;;30.60;84.00;;;;;;4933704;29;20569;-63
2022/08/23 11:03:42;;;;;;;4.85;2.58;;;30.60;83.50;;;;;;4932431;29;20059;-63
2022/08/23 11:06:30;;;;;;;5.18;2.42;;;30.60;83.80;;;;;;4903495;29;20382;-63
2022/08/23 11:09:04;;;;;;;5.55;2.53;;;30.70;81.50;;;;;;4948277;28;20510;-68
2022/08/23 11:12:07;;;;;;;6.13;2.65;;;30.70;82.20;;;;;;4933493;29;20055;-63
2022/08/23 11:14:56;;;;;;;6.63;2.60;;;30.70;82.10;;;;;;4933628;29;20044;-63
2022/08/23 11:17:48;;;;;;;5.28;2.70;;;30.50;82.50;;;;;;4933726;29;20051;-63
2022/08/23 11:20:49;;;;;;;7.80;2.50;;;30.60;81.40;;;;;;4919874;29;20051;-63
2022/08/23 11:23:33;;;;;;;5.97;2.38;;;30.70;81.20;;;;;;4932837;29;20062;-64
2022/08/23 11:26:00;;;;;;;5.40;2.45;;;30.70;81.30;;;;;;4933023;29;20109;-64
2022/08/23 11:28:26;;;;;;;8.82;2.42;;;30.60;81.30;;;;;;4932105;29;20048;-65
2022/08/23 11:31:07;;;;;;;8.05;2.55;;;30.60;80.40;;;;;;4933343;29;20059;-64
2022/08/23 11:34:00;;;;;;;6.85;2.70;;;30.60;81.00;;;;;;4933232;29;20056;-63
2022/08/23 11:36:27;;;;;;;5.53;2.58;;;30.50;80.90;;;;;;4933289;29;20157;-63
2022/08/23 11:38:54;;;;;;;5.25;2.55;;;30.40;80.90;;;;;;4933011;29;20046;-63
2022/08/23 11:41:26;;;;;;;6.28;2.55;;;30.30;81.10;;;;;;4931959;29;20976;-63
2022/08/23 11:43:54;;;;;;;5.00;2.20;;;30.20;81.30;;;;;;4933274;29;20050;-62
2022/08/23 11:46:33;;;;;;;5.63;2.60;;;30.20;81.00;;;;;;4932834;29;20035;-63
2022/08/23 11:49:29;;;;;;;5.47;2.70;;;30.10;81.60;;;;;;4931933;29;20420;-65
2022/08/23 11:52:32;;;;;;;5.72;2.60;;;30.10;81.40;;;;;;4931987;29;20160;-63
2022/08/23 11:55:14;;;;;;;6.78;2.60;;;30.10;82.10;;;;;;4933048;29;20039;-63
2022/08/23 11:58:15;;;;;;;6.68;2.58;;;30.10;81.90;;;;;;4931840;29;20051;-65
2022/08/23 12:01:06;;;;;;;4.97;2.50;;;30.10;81.80;;;;;;4935023;29;20501;-64
2022/08/23 12:03:53;;;;;;;6.07;2.80;;;30.00;81.10;;;;;;4937077;29;20123;-64
2022/08/23 12:06:18;;;;;;;5.13;2.45;;;30.20;81.70;;;;;;4924621;29;20114;-61
2022/08/23 12:08:48;;;;;;;6.10;2.63;;;30.30;82.40;;;;;;4937072;29;20055;-62
2022/08/23 12:11:16;;;;;;;5.22;2.65;;;30.40;81.70;;;;;;4936293;29;20071;-62
2022/08/23 12:14:19;;;;;;;6.85;2.80;;;30.50;81.80;;;;;;4935845;29;20130;-62
2022/08/23 12:16:45;;;;;;;5.63;2.20;;;30.40;81.90;;;;;;4936401;29;20052;-62
2022/08/23 12:19:23;;;;;;;7.70;2.28;;;30.40;81.90;;;;;;4936517;29;20118;-63
2022/08/23 12:21:53;;;;;;;6.35;2.60;;;30.50;81.40;;;;;;4919691;29;20048;-62
2022/08/23 12:24:42;;;;;;;6.78;2.75;;;30.60;80.70;;;;;;4935292;29;20056;-62
2022/08/23 12:27:19;;;;;;;6.43;2.53;;;30.60;81.20;;;;;;4932168;29;20066;-63
2022/08/23 12:30:04;;;;;;;5.35;2.40;;;30.70;80.70;;;;;;4936414;29;20051;-62
2022/08/23 12:32:44;;;;;;;7.28;2.85;;;30.90;81.10;;;;;;4936350;29;20052;-63
2022/08/23 12:35:37;;;;;;;6.13;2.33;;;31.00;81.50;;;;;;4935690;29;20044;-62
2022/08/23 12:38:18;;;;;;;8.73;2.97;;;31.00;81.90;;;;;;4935650;29;20413;-62
2022/08/23 12:40:47;;;;;;;5.05;2.45;;;31.00;80.90;;;;;;4935527;29;20051;-62
2022/08/23 12:43:13;;;;;;;6.72;2.80;;;31.10;81.00;;;;;;4947374;29;20052;-62
2022/08/23 12:45:45;;;;;;;10.95;2.65;;;31.10;81.10;;;;;;4935227;29;20039;-62
2022/08/23 12:48:13;;;;;;;8.10;2.55;;;31.00;81.10;;;;;;4934893;29;20517;-62
2022/08/23 12:50:43;;;;;;;5.57;2.40;;;31.00;80.20;;;;;;4936066;29;20044;-63
2022/08/23 12:53:24;;;;;;;5.57;2.33;;;31.00;79.80;;;;;;4934850;29;20059;-67
2022/08/23 12:55:57;;;;;;;5.55;2.60;;;30.90;80.10;;;;;;4935863;29;20076;-63
2022/08/23 12:58:29;;;;;;;8.27;3.03;;;30.80;80.00;;;;;;4934125;29;20066;-63
2022/08/23 13:00:58;;;;;;;5.72;2.33;;;30.70;80.00;;;;;;4934697;29;20067;-63
2022/08/23 13:03:32;;;;;;;4.63;2.50;;;30.90;80.40;;;;;;4935541;29;20087;-63
2022/08/23 13:06:11;;;;;;;6.47;2.60;;;31.00;79.90;;;;;;4935597;29;20079;-63
2022/08/23 13:08:43;;;;;;;6.75;2.40;;;31.00;80.50;;;;;;4935865;29;20055;-63
2022/08/23 13:11:11;;;;;;;6.40;2.40;;;31.20;80.70;;;;;;4933863;29;20498;-63
2022/08/23 13:13:40;;;;;;;6.18;2.60;;;31.30;80.30;;;;;;4936423;29;20083;-63
2022/08/23 13:16:30;;;;;;;8.02;2.60;;;31.30;79.20;;;;;;4903445;29;20054;-64
2022/08/23 13:19:21;;;;;;;5.88;2.60;;;31.30;79.10;;;;;;4926565;29;20467;-62
2022/08/23 13:21:47;;;;;;;7.03;2.35;;;31.20;79.00;;;;;;4935358;29;20079;-63
2022/08/23 13:24:35;;;;;;;7.00;2.47;;;31.20;79.50;;;;;;4935161;29;20126;-68
2022/08/23 13:27:25;;;;;;;4.20;2.05;;;31.10;78.10;;;;;;4935924;29;20102;-63
2022/08/23 13:29:58;;;;;;;5.40;2.30;;;31.10;78.40;;;;;;4936961;29;20130;-64
2022/08/23 13:32:40;;;;;;;4.70;2.30;;;31.20;77.20;;;;;;4936368;29;20418;-63
2022/08/23 13:35:22;;;;;;;6.00;2.40;;;31.20;78.00;;;;;;4935502;29;20054;-64
2022/08/23 13:37:50;;;;;;;4.50;2.35;;;31.20;77.10;;;;;;4936652;29;20505;-64
2022/08/23 13:40:24;;;;;;;6.75;2.45;;;31.20;77.10;;;;;;4936234;29;20087;-67
2022/08/23 13:42:54;;;;;;;5.95;2.22;;;31.10;77.40;;;;;;4935735;29;20118;-64
2022/08/23 13:45:25;;;;;;;4.88;2.42;;;31.10;77.30;;;;;;4935292;29;20087;-63
2022/08/23 13:47:59;;;;;;;6.15;2.53;;;31.10;77.70;;;;;;4935474;29;20474;-64
2022/08/23 13:50:30;;;;;;;6.20;2.50;;;31.00;78.70;;;;;;4936163;29;20056;-64
2022/08/23 13:52:57;;;;;;;3.33;2.10;;;31.00;78.40;;;;;;4936406;29;20048;-64
2022/08/23 13:55:23;;;;;;;5.25;2.45;;;31.00;78.80;;;;;;4935834;29;20134;-64
2022/08/23 13:57:50;;;;;;;5.28;2.70;;;31.10;77.10;;;;;;4935997;29;20047;-64
2022/08/23 14:00:16;;;;;;;5.15;2.20;;;31.00;77.30;;;;;;4935338;29;20074;-65
2022/08/23 14:02:41;;;;;;;7.57;2.30;;;31.00;77.60;;;;;;4934364;29;20043;-64
2022/08/23 14:05:08;;;;;;;5.75;2.40;;;31.00;77.30;;;;;;4936128;29;20059;-64
2022/08/23 14:07:34;;;;;;;6.95;2.47;;;30.90;78.20;;;;;;4935754;29;20439;-64
2022/08/23 14:10:00;;;;;;;5.40;2.35;;;31.00;77.90;;;;;;4935164;29;20058;-64
2022/08/23 14:12:32;;;;;;;5.35;2.42;;;31.00;77.90;;;;;;4935632;29;20400;-64
2022/08/23 14:15:01;;;;;;;6.18;2.30;;;31.00;77.40;;;;;;4935957;29;20086;-62
2022/08/23 14:17:27;;;;;;;7.50;2.67;;;31.00;77.30;;;;;;4935537;29;20124;-63
2022/08/23 14:19:53;;;;;;;4.75;2.40;;;31.00;77.00;;;;;;4950638;29;20474;-64
2022/08/23 14:22:19;;;;;;;8.05;2.40;;;31.00;77.30;;;;;;4935152;29;20510;-67
2022/08/23 14:24:44;;;;;;;5.85;2.70;;;31.00;77.50;;;;;;4934980;29;20087;-64
2022/08/23 14:27:11;;;;;;;8.00;2.67;;;31.00;77.60;;;;;;4934585;29;20080;-63
2022/08/23 14:29:37;;;;;;;10.10;2.80;;;30.90;77.10;;;;;;4935341;29;20055;-64
2022/08/23 14:32:03;;;;;;;8.07;2.75;;;30.90;77.30;;;;;;4934632;29;20398;-64
2022/08/23 14:34:30;;;;;;;6.80;2.83;;;30.90;77.30;;;;;;4935384;29;20542;-64
2022/08/23 14:36:57;;;;;;;6.55;2.90;;;30.80;77.80;;;;;;4935580;29;20052;-63
2022/08/23 14:39:23;;;;;;;5.72;2.50;;;30.80;77.20;;;;;;4935310;29;20059;-68
2022/08/23 14:41:49;;;;;;;5.50;2.35;;;30.70;76.80;;;;;;4935539;29;20039;-64
2022/08/23 14:44:15;;;;;;;6.55;2.60;;;30.70;77.50;;;;;;4934030;29;20493;-63
2022/08/23 14:46:43;;;;;;;7.72;2.45;;;30.80;78.10;;;;;;4935065;29;20044;-64
2022/08/23 14:49:09;;;;;;;5.70;2.55;;;30.70;78.00;;;;;;4918522;29;20055;-64
2022/08/23 14:51:40;;;;;;;7.65;2.75;;;30.70;78.30;;;;;;4933657;29;20048;-64
2022/08/23 14:54:07;;;;;;;4.40;2.53;;;30.70;78.20;;;;;;4935235;29;20070;-64
2022/08/23 14:56:33;;;;;;;6.95;2.50;;;30.70;78.10;;;;;;4949619;29;20466;-64
2022/08/23 14:58:59;;;;;;;6.60;2.85;;;30.80;78.50;;;;;;4934929;29;20063;-64
2022/08/23 15:01:25;;;;;;;6.30;2.50;;;30.70;78.40;;;;;;4935028;29;20056;-67
2022/08/23 15:03:51;;;;;;;9.20;2.80;;;30.80;78.40;;;;;;4918339;29;20044;-63
2022/08/23 15:06:19;;;;;;;7.03;2.72;;;30.80;78.10;;;;;;4935034;29;20046;-63
2022/08/23 15:08:45;;;;;;;6.55;2.78;;;30.70;78.00;;;;;;4917797;29;20054;-64
2022/08/23 15:11:11;;;;;;;7.32;2.80;;;30.80;77.50;;;;;;4933989;29;20135;-64
2022/08/23 15:13:37;;;;;;;6.05;2.38;;;30.70;77.80;;;;;;4917763;29;20052;-64
2022/08/23 15:16:06;;;;;;;5.25;2.63;;;30.80;78.10;;;;;;4934585;29;20494;-63
2022/08/23 15:18:33;;;;;;;5.47;2.42;;;30.80;78.40;;;;;;4934501;29;20090;-63
2022/08/23 15:20:58;;;;;;;4.90;2.30;;;30.80;78.30;;;;;;4933750;29;20051;-64
2022/08/23 15:23:24;;;;;;;5.47;2.63;;;30.90;78.60;;;;;;4933727;29;20090;-64
2022/08/23 15:25:51;;;;;;;6.75;2.60;;;30.90;78.80;;;;;;4933584;29;20118;-63
2022/08/23 15:28:19;;;;;;;7.80;2.70;;;30.90;78.80;;;;;;4934881;29;20501;-64
2022/08/23 15:30:45;;;;;;;6.50;2.78;;;30.80;78.80;;;;;;4917518;29;20163;-63
2022/08/23 15:33:11;;;;;;;6.97;2.60;;;30.80;78.60;;;;;;4934777;29;20125;-64
2022/08/23 15:35:47;;;;;;;7.13;2.85;;;30.70;79.00;;;;;;4933954;29;20051;-64
2022/08/23 15:38:15;;;;;;;5.75;2.60;;;30.60;78.60;;;;;;4917106;29;20052;-66
2022/08/23 15:40:41;;;;;;;6.20;2.50;;;30.60;79.00;;;;;;4933781;29;20051;-63
2022/08/23 15:43:07;;;;;;;4.90;2.70;;;30.50;78.80;;;;;;4934243;29;20051;-64
2022/08/23 15:45:33;;;;;;;4.43;2.30;;;30.50;79.00;;;;;;4932800;29;20074;-68
2022/08/23 15:48:04;;;;;;;8.30;3.20;;;30.50;79.30;;;;;;4917060;29;20493;-63
2022/08/23 15:50:33;;;;;;;6.00;2.60;;;30.50;79.10;;;;;;4934229;29;20118;-63
2022/08/23 15:53:00;;;;;;;4.93;2.85;;;30.50;79.10;;;;;;4933057;29;20051;-64
2022/08/23 15:55:29;;;;;;;9.02;3.00;;;30.40;79.00;;;;;;4934410;29;20047;-64